createdAt,value
2023-03-30T00:00:32.474Z,99023.84
2023-03-30T00:02:38.880Z,99027.72
2023-03-30T00:04:43.247Z,99031.63
2023-03-30T00:06:46.949Z,99033.59
2023-03-30T00:08:53.745Z,99031.25
2023-03-30T00:11:02.527Z,99040.28
2023-03-30T00:13:06.257Z,99037.94
2023-03-30T00:15:12.564Z,99045.16
2023-03-30T00:17:17.729Z,99037.50
2023-03-30T00:19:21.796Z,99035.00
2023-03-30T00:21:25.332Z,99042.22
2023-03-30T00:23:29.018Z,99039.72
2023-03-30T00:25:32.652Z,99036.50
2023-03-30T00:27:36.417Z,99039.16
2023-03-30T00:29:42.639Z,99034.72
2023-03-30T00:31:46.434Z,99034.00
2023-03-30T00:33:52.021Z,99039.28
2023-03-30T00:35:57.494Z,99035.81
2023-03-30T00:38:03.492Z,99037.66
2023-03-30T00:40:08.980Z,99036.66
2023-03-30T00:42:17.691Z,99033.88
2023-03-30T00:45:07.068Z,99035.69
2023-03-30T00:47:11.020Z,99038.19
2023-03-30T00:49:16.016Z,99034.56
2023-03-30T00:51:19.830Z,99038.03
2023-03-30T00:53:26.586Z,99043.09
2023-03-30T00:55:33.732Z,99034.28
2023-03-30T00:57:38.899Z,99043.09
2023-03-30T00:59:42.541Z,99035.97
2023-03-30T01:01:50.232Z,99031.50
2023-03-30T01:03:54.419Z,99037.66
2023-03-30T01:06:01.423Z,99039.28
2023-03-30T01:08:07.747Z,99037.50
2023-03-30T01:10:12.853Z,99039.03
2023-03-30T01:12:16.616Z,99035.41
2023-03-30T01:14:22.402Z,99032.63
2023-03-30T01:16:31.527Z,99036.94
2023-03-30T01:18:47.955Z,99045.59
2023-03-30T01:21:27.601Z,99042.78
2023-03-30T01:24:27.939Z,99049.63
2023-03-30T01:26:57.163Z,99057.28
2023-03-30T01:29:08.393Z,99062.44
2023-03-30T01:31:46.369Z,99072.03
2023-03-30T01:34:17.854Z,99071.06
2023-03-30T01:37:11.636Z,99077.19
2023-03-30T01:39:33.923Z,99071.63
2023-03-30T01:41:41.075Z,99082.91
2023-03-30T01:43:51.207Z,99079.28
2023-03-30T01:46:01.338Z,99077.63
2023-03-30T01:48:11.694Z,99078.31
2023-03-30T01:50:18.395Z,99076.66
2023-03-30T01:52:29.032Z,99076.66
2023-03-30T01:54:38.039Z,99074.81
2023-03-30T01:56:48.018Z,99071.50
2023-03-30T01:58:55.336Z,99075.25
2023-03-30T02:00:59.998Z,99070.06
2023-03-30T02:03:08.822Z,99075.38
2023-03-30T02:05:18.082Z,99077.19
2023-03-30T02:07:26.329Z,99082.50
2023-03-30T02:09:32.526Z,99076.50
2023-03-30T02:11:40.009Z,99076.63
2023-03-30T02:13:44.599Z,99078.44
2023-03-30T02:15:52.849Z,99073.28
2023-03-30T02:17:56.386Z,99073.44
2023-03-30T02:20:00.350Z,99066.47
2023-03-30T02:22:03.936Z,99063.97
2023-03-30T02:24:17.876Z,99062.28
2023-03-30T02:26:23.046Z,99068.69
2023-03-30T02:28:28.082Z,99063.41
2023-03-30T02:30:34.820Z,99068.00
2023-03-30T02:32:42.619Z,99063.09
2023-03-30T02:35:02.671Z,99066.75
2023-03-30T02:37:32.784Z,99067.84
2023-03-30T02:39:47.863Z,99074.94
2023-03-30T02:42:33.166Z,99068.16
2023-03-30T02:44:45.116Z,99070.22
2023-03-30T02:47:04.078Z,99063.25
2023-03-30T02:49:19.199Z,99074.94
2023-03-30T02:51:40.101Z,99072.56
2023-03-30T02:54:15.436Z,99071.84
2023-03-30T02:56:47.029Z,99073.81
2023-03-30T02:58:55.357Z,99061.56
2023-03-30T03:01:05.101Z,99064.19
2023-03-30T03:03:24.527Z,99064.47
2023-03-30T03:05:32.654Z,99066.41
2023-03-30T03:07:42.867Z,99060.44
2023-03-30T03:09:47.801Z,99054.44
2023-03-30T03:11:52.416Z,99049.28
2023-03-30T03:13:56.140Z,99055.56
2023-03-30T03:16:04.201Z,99059.19
2023-03-30T03:18:08.729Z,99043.44
2023-03-30T03:20:13.880Z,99041.78
2023-03-30T03:22:17.323Z,99041.91
2023-03-30T03:24:22.420Z,99043.69
2023-03-30T03:26:57.452Z,99049.28
2023-03-30T03:29:03.630Z,99048.59
2023-03-30T03:31:08.490Z,99051.22
2023-03-30T03:33:11.932Z,99041.63
2023-03-30T03:35:18.016Z,99055.81
2023-03-30T03:37:21.452Z,99050.66
2023-03-30T03:39:25.126Z,99045.50
2023-03-30T03:41:33.024Z,99052.47
2023-03-30T03:43:36.800Z,99052.47
2023-03-30T03:45:40.290Z,99047.19
2023-03-30T03:47:45.086Z,99048.84
2023-03-30T03:49:48.389Z,99040.91
2023-03-30T03:51:51.777Z,99043.53
2023-03-30T03:53:55.072Z,99045.38
2023-03-30T03:55:58.568Z,99043.53
2023-03-30T03:58:03.548Z,99043.53
2023-03-30T04:00:15.780Z,99040.75
2023-03-30T04:02:23.941Z,99034.66
2023-03-30T04:04:31.104Z,99036.31
2023-03-30T04:06:34.134Z,99034.50
2023-03-30T04:08:37.733Z,99035.47
2023-03-30T04:11:08.170Z,99039.94
2023-03-30T04:13:46.679Z,99040.75
2023-03-30T04:16:09.438Z,99038.25
2023-03-30T04:18:33.737Z,99035.63
2023-03-30T04:20:48.261Z,99035.63
2023-03-30T04:23:10.235Z,99040.22
2023-03-30T04:25:32.383Z,99035.06
2023-03-30T04:27:56.183Z,99029.06
2023-03-30T04:30:22.566Z,99036.16
2023-03-30T04:32:45.056Z,99033.53
2023-03-30T04:35:11.272Z,99031.84
2023-03-30T04:37:34.614Z,99035.22
2023-03-30T04:40:16.440Z,99032.56
2023-03-30T04:42:37.954Z,99031.16
2023-03-30T04:45:02.333Z,99035.72
2023-03-30T04:47:30.350Z,99034.78
2023-03-30T04:49:52.185Z,99035.59
2023-03-30T04:52:14.454Z,99040.75
2023-03-30T04:54:42.966Z,99039.09
2023-03-30T04:57:14.187Z,99031.03
2023-03-30T04:59:20.942Z,99043.13
2023-03-30T05:01:43.344Z,99042.16
2023-03-30T05:04:06.958Z,99042.00
2023-03-30T05:06:33.604Z,99038.53
2023-03-30T05:09:03.041Z,99043.00
2023-03-30T05:11:43.604Z,99038.81
2023-03-30T05:14:01.796Z,99039.91
2023-03-30T05:16:31.368Z,99046.59
2023-03-30T05:19:01.584Z,99034.16
2023-03-30T05:21:27.704Z,99031.81
2023-03-30T05:23:52.292Z,99042.38
2023-03-30T05:26:14.421Z,99039.72
2023-03-30T05:28:19.537Z,99043.34
2023-03-30T05:30:32.654Z,99038.06
2023-03-30T05:33:02.669Z,99040.41
2023-03-30T05:35:27.239Z,99045.56
2023-03-30T05:37:39.893Z,99050.75
2023-03-30T05:40:16.245Z,99043.78
2023-03-30T05:42:40.184Z,99053.38
2023-03-30T05:45:09.818Z,99052.25
2023-03-30T05:47:32.063Z,99057.16
2023-03-30T05:49:38.403Z,99053.41
2023-03-30T05:52:17.771Z,99064.53
2023-03-30T05:54:33.456Z,99061.66
2023-03-30T05:56:47.080Z,99066.66
2023-03-30T05:58:57.811Z,99071.38
2023-03-30T06:01:28.799Z,99064.84
2023-03-30T06:03:34.967Z,99061.97
2023-03-30T06:05:42.160Z,99071.44
2023-03-30T06:07:47.534Z,99060.00
2023-03-30T06:09:51.371Z,99059.19
2023-03-30T06:12:02.771Z,99061.09
2023-03-30T06:14:08.079Z,99060.00
2023-03-30T06:16:13.429Z,99069.63
2023-03-30T06:18:19.141Z,99072.94
2023-03-30T06:20:32.716Z,99068.38
2023-03-30T06:22:37.245Z,99064.75
2023-03-30T06:24:47.671Z,99066.16
2023-03-30T06:26:52.416Z,99072.84
2023-03-30T06:28:56.545Z,99083.97
2023-03-30T06:31:03.369Z,99074.94
2023-03-30T06:33:08.218Z,99078.00
2023-03-30T06:35:21.844Z,99083.44
2023-03-30T06:37:27.070Z,99072.19
2023-03-30T06:39:30.499Z,99073.44
2023-03-30T06:41:34.056Z,99073.88
2023-03-30T06:43:41.965Z,99074.41
2023-03-30T06:45:54.207Z,99074.00
2023-03-30T06:47:57.991Z,99082.34
2023-03-30T06:50:01.761Z,99081.22
2023-03-30T06:52:25.538Z,99089.88
2023-03-30T06:54:30.237Z,99087.09
2023-03-30T06:56:41.890Z,99099.34
2023-03-30T06:58:47.383Z,99089.31
2023-03-30T07:00:51.345Z,99096.00
2023-03-30T07:03:07.377Z,99101.16
2023-03-30T07:05:48.205Z,99105.19
2023-03-30T07:07:59.890Z,99101.84
2023-03-30T07:10:10.242Z,99106.59
2023-03-30T07:12:14.151Z,99110.50
2023-03-30T07:14:17.821Z,99111.59
2023-03-30T07:16:22.388Z,99123.03
2023-03-30T07:18:26.010Z,99122.28
2023-03-30T07:20:29.733Z,99125.75
2023-03-30T07:22:43.871Z,99125.59
2023-03-30T07:24:49.214Z,99125.75
2023-03-30T07:26:53.129Z,99132.03
2023-03-30T07:28:57.654Z,99134.97
2023-03-30T07:31:07.004Z,99129.41
2023-03-30T07:33:12.038Z,99138.63
2023-03-30T07:35:15.839Z,99140.59
2023-03-30T07:37:21.005Z,99144.63
2023-03-30T07:39:26.523Z,99145.06
2023-03-30T07:41:31.871Z,99136.56
2023-03-30T07:43:36.821Z,99145.75
2023-03-30T07:45:40.666Z,99145.91
2023-03-30T07:47:47.171Z,99156.50
2023-03-30T07:49:52.243Z,99160.25
2023-03-30T07:51:56.517Z,99164.59
2023-03-30T07:54:12.024Z,99166.81
2023-03-30T07:56:39.728Z,99165.44
2023-03-30T07:58:46.324Z,99167.34
2023-03-30T08:00:50.447Z,99159.69
2023-03-30T08:03:12.975Z,99171.81
2023-03-30T08:05:17.991Z,99162.59
2023-03-30T08:07:40.565Z,99172.09
2023-03-30T08:09:51.983Z,99170.81
2023-03-30T08:11:57.998Z,99167.88
2023-03-30T08:14:02.014Z,99169.56
2023-03-30T08:16:06.125Z,99166.91
2023-03-30T08:18:13.150Z,99172.75
2023-03-30T08:20:17.621Z,99176.66
2023-03-30T08:22:21.238Z,99167.84
2023-03-30T08:24:24.995Z,99172.50
2023-03-30T08:26:28.593Z,99163.94
2023-03-30T08:28:34.245Z,99167.09
2023-03-30T08:30:37.923Z,99179.75
2023-03-30T08:32:41.753Z,99171.22
2023-03-30T08:34:45.207Z,99184.88
2023-03-30T08:36:49.164Z,99182.31
2023-03-30T08:38:53.459Z,99186.19
2023-03-30T08:40:57.343Z,99179.16
2023-03-30T08:43:34.576Z,99175.31
2023-03-30T08:45:42.793Z,99178.13
2023-03-30T08:47:49.594Z,99180.28
2023-03-30T08:50:02.353Z,99175.91
2023-03-30T08:52:08.098Z,99187.53
2023-03-30T08:54:16.967Z,99186.28
2023-03-30T08:56:23.697Z,99196.81
2023-03-30T08:58:40.496Z,99192.50
2023-03-30T09:00:50.434Z,99207.94
2023-03-30T09:03:00.711Z,99196.59
2023-03-30T09:05:11.107Z,99200.63
2023-03-30T09:07:19.865Z,99209.34
2023-03-30T09:09:26.423Z,99202.41
2023-03-30T09:11:34.907Z,99205.34
2023-03-30T09:13:41.108Z,99213.19
2023-03-30T09:15:51.982Z,99206.59
2023-03-30T09:18:01.398Z,99194.63
2023-03-30T09:20:10.473Z,99199.50
2023-03-30T09:22:16.376Z,99194.91
2023-03-30T09:24:26.308Z,99211.41
2023-03-30T09:26:37.064Z,99212.75
2023-03-30T09:28:51.111Z,99211.31
2023-03-30T09:31:02.904Z,99211.34
2023-03-30T09:33:15.783Z,99208.34
2023-03-30T09:35:25.042Z,99215.38
2023-03-30T09:37:29.974Z,99213.56
2023-03-30T09:39:35.506Z,99210.25
2023-03-30T09:42:01.267Z,99218.75
2023-03-30T09:44:04.834Z,99204.94
2023-03-30T09:46:10.312Z,99216.94
2023-03-30T09:48:17.413Z,99211.59
2023-03-30T09:50:24.921Z,99216.25
2023-03-30T09:52:30.226Z,99215.31
2023-03-30T09:54:38.316Z,99221.97
2023-03-30T09:56:47.898Z,99219.47
2023-03-30T09:58:51.679Z,99217.13
2023-03-30T10:01:08.576Z,99228.63
2023-03-30T10:03:22.083Z,99223.63
2023-03-30T10:05:26.505Z,99231.44
2023-03-30T10:07:33.412Z,99223.91
2023-03-30T10:09:46.016Z,99226.50
2023-03-30T10:11:51.777Z,99229.47
2023-03-30T10:13:55.477Z,99232.47
2023-03-30T10:16:05.375Z,99229.16
2023-03-30T10:18:25.351Z,99233.66
2023-03-30T10:20:34.609Z,99232.31
2023-03-30T10:22:49.552Z,99239.94
2023-03-30T10:24:55.708Z,99241.09
2023-03-30T10:27:01.109Z,99244.59
2023-03-30T10:29:07.660Z,99233.41
2023-03-30T10:31:17.686Z,99237.72
2023-03-30T10:33:23.289Z,99239.34
2023-03-30T10:35:29.877Z,99237.00
2023-03-30T10:37:37.604Z,99241.38
2023-03-30T10:39:43.440Z,99234.06
2023-03-30T10:41:48.891Z,99238.38
2023-03-30T10:43:53.479Z,99241.75
2023-03-30T10:46:09.030Z,99244.47
2023-03-30T10:48:49.342Z,99239.75
2023-03-30T10:50:59.394Z,99240.59
2023-03-30T10:53:14.861Z,99231.59
2023-03-30T10:55:24.875Z,99239.47
2023-03-30T10:57:41.277Z,99240.94
2023-03-30T11:00:10.010Z,99245.56
2023-03-30T11:02:41.530Z,99245.03
2023-03-30T11:04:49.119Z,99246.47
2023-03-30T11:06:54.801Z,99253.50
2023-03-30T11:09:02.504Z,99242.25
2023-03-30T11:11:09.164Z,99233.09
2023-03-30T11:13:17.347Z,99237.50
2023-03-30T11:15:27.336Z,99238.47
2023-03-30T11:17:34.391Z,99249.16
2023-03-30T11:19:43.735Z,99246.97
2023-03-30T11:21:57.096Z,99245.09
2023-03-30T11:24:08.494Z,99260.91
2023-03-30T11:26:13.775Z,99253.88
2023-03-30T11:28:24.420Z,99243.56
2023-03-30T11:30:31.346Z,99243.75
2023-03-30T11:32:40.360Z,99242.09
2023-03-30T11:34:55.594Z,99243.56
2023-03-30T11:37:06.903Z,99239.06
2023-03-30T11:39:28.892Z,99239.25
2023-03-30T11:41:38.335Z,99238.63
2023-03-30T11:43:42.548Z,99228.16
2023-03-30T11:45:56.602Z,99235.97
2023-03-30T11:48:13.718Z,99236.63
2023-03-30T11:50:33.522Z,99225.91
2023-03-30T11:52:48.063Z,99216.59
2023-03-30T11:55:23.986Z,99224.25
2023-03-30T11:57:35.192Z,99219.97
2023-03-30T11:59:47.484Z,99213.63
2023-03-30T12:02:08.516Z,99212.63
2023-03-30T12:04:16.047Z,99215.13
2023-03-30T12:06:30.347Z,99209.78
2023-03-30T12:08:50.265Z,99209.63
2023-03-30T12:11:02.737Z,99202.75
2023-03-30T12:13:07.067Z,99197.91
2023-03-30T12:15:27.687Z,99189.88
2023-03-30T12:17:49.632Z,99198.22
2023-03-30T12:19:58.767Z,99189.19
2023-03-30T12:22:06.923Z,99187.50
2023-03-30T12:24:20.336Z,99197.69
2023-03-30T12:26:28.666Z,99187.16
2023-03-30T12:30:57.538Z,99173.00
2023-03-30T12:33:12.529Z,99169.47
2023-03-30T12:35:48.355Z,99181.31
2023-03-30T12:37:52.870Z,99182.47
2023-03-30T12:40:06.464Z,99177.97
2023-03-30T12:42:26.368Z,99178.63
2023-03-30T12:44:39.955Z,99183.63
2023-03-30T12:46:53.041Z,99182.44
2023-03-30T12:49:08.036Z,99175.44
2023-03-30T12:51:22.200Z,99176.13
2023-03-30T12:53:53.985Z,99177.13
2023-03-30T12:56:07.735Z,99173.31
2023-03-30T12:58:44.139Z,99168.19
2023-03-30T13:01:08.185Z,99168.22
2023-03-30T13:03:32.935Z,99168.56
2023-03-30T13:05:40.986Z,99170.91
2023-03-30T13:07:46.312Z,99164.22
2023-03-30T13:09:55.986Z,99163.69
2023-03-30T13:12:29.237Z,99157.00
2023-03-30T13:14:46.203Z,99155.81
2023-03-30T13:17:11.571Z,99151.44
2023-03-30T13:19:22.645Z,99150.75
2023-03-30T13:21:27.471Z,99138.03
2023-03-30T13:23:33.855Z,99139.06
2023-03-30T13:25:44.532Z,99140.06
2023-03-30T13:27:52.633Z,99140.72
2023-03-30T13:29:58.423Z,99138.19
2023-03-30T13:32:16.425Z,99147.69
2023-03-30T13:34:32.905Z,99141.34
2023-03-30T13:36:41.784Z,99133.19
2023-03-30T13:39:05.440Z,99141.88
2023-03-30T13:41:28.460Z,99139.25
2023-03-30T13:43:53.803Z,99134.78
2023-03-30T13:46:15.557Z,99126.81
2023-03-30T13:48:40.747Z,99118.00
2023-03-30T13:50:48.429Z,99120.50
2023-03-30T13:52:54.029Z,99119.50
2023-03-30T13:54:58.477Z,99122.88
2023-03-30T13:57:09.697Z,99110.84
2023-03-30T13:59:19.563Z,99107.47
2023-03-30T14:01:25.707Z,99098.78
2023-03-30T14:03:39.798Z,99100.56
2023-03-30T14:05:43.600Z,99088.19
2023-03-30T14:07:47.684Z,99093.00
2023-03-30T14:10:10.029Z,99095.97
2023-03-30T14:12:15.127Z,99089.09
2023-03-30T14:14:25.263Z,99084.41
2023-03-30T14:16:35.210Z,99090.59
2023-03-30T14:18:39.079Z,99078.53
2023-03-30T14:20:48.861Z,99066.84
2023-03-30T14:22:54.150Z,99061.34
2023-03-30T14:24:59.792Z,99053.31
2023-03-30T14:27:05.520Z,99052.28
2023-03-30T14:29:24.594Z,99051.47
2023-03-30T14:31:42.531Z,99056.19
2023-03-30T14:33:47.064Z,99051.66
2023-03-30T14:35:53.154Z,99049.81
2023-03-30T14:38:06.768Z,99042.47
2023-03-30T14:40:18.366Z,99041.47
2023-03-30T14:42:23.854Z,99036.94
2023-03-30T14:44:27.575Z,99032.78
2023-03-30T14:46:39.249Z,99029.16
2023-03-30T14:48:49.305Z,99024.50
2023-03-30T14:50:54.390Z,99024.06
2023-03-30T14:52:58.234Z,99020.91
2023-03-30T14:55:09.103Z,99014.06
2023-03-30T14:57:17.654Z,99013.41
2023-03-30T14:59:22.106Z,98998.59
2023-03-30T15:01:31.688Z,98999.59
2023-03-30T15:03:38.534Z,98998.91
2023-03-30T15:05:47.233Z,99003.25
2023-03-30T15:07:52.543Z,98992.22
2023-03-30T15:09:57.534Z,98999.53
2023-03-30T15:12:03.392Z,98992.81
2023-03-30T15:14:09.976Z,98985.63
2023-03-30T15:16:19.528Z,98975.31
2023-03-30T15:18:27.268Z,98978.16
2023-03-30T15:20:32.720Z,98970.47
2023-03-30T15:22:40.254Z,98984.13
2023-03-30T15:24:44.501Z,98978.41
2023-03-30T15:26:50.804Z,98978.03
2023-03-30T15:28:58.551Z,98973.38
2023-03-30T15:31:02.720Z,98976.03
2023-03-30T15:33:08.402Z,98971.88
2023-03-30T15:35:23.296Z,98971.56
2023-03-30T15:37:26.945Z,98980.41
2023-03-30T15:39:36.277Z,98973.25
2023-03-30T15:41:47.721Z,98983.09
2023-03-30T15:43:57.067Z,98981.44
2023-03-30T15:46:03.628Z,98972.22
2023-03-30T15:48:13.072Z,98980.06
2023-03-30T15:50:19.367Z,98978.03
2023-03-30T15:52:26.127Z,98970.03
2023-03-30T15:54:38.683Z,98966.88
2023-03-30T15:56:46.333Z,98965.94
2023-03-30T15:58:51.002Z,98969.78
2023-03-30T16:00:54.758Z,98963.81
2023-03-30T16:03:00.085Z,98952.66
2023-03-30T16:05:05.639Z,98962.03
2023-03-30T16:07:16.729Z,98967.72
2023-03-30T16:09:20.377Z,98965.25
2023-03-30T16:11:25.638Z,98957.09
2023-03-30T16:13:29.364Z,98955.00
2023-03-30T16:15:35.089Z,98955.03
2023-03-30T16:17:38.630Z,98958.25
2023-03-30T16:19:42.685Z,98951.59
2023-03-30T16:21:46.389Z,98941.78
2023-03-30T16:23:49.964Z,98950.69
2023-03-30T16:25:53.591Z,98941.88
2023-03-30T16:27:58.992Z,98936.75
2023-03-30T16:30:02.624Z,98930.63
2023-03-30T16:32:06.574Z,98928.44
2023-03-30T16:34:10.313Z,98918.31
2023-03-30T16:36:16.074Z,98913.16
2023-03-30T16:38:20.399Z,98910.50
2023-03-30T16:40:32.593Z,98908.47
2023-03-30T16:42:36.106Z,98900.28
2023-03-30T16:44:41.536Z,98900.78
2023-03-30T16:46:46.141Z,98902.63
2023-03-30T16:48:50.519Z,98902.59
2023-03-30T16:50:55.251Z,98905.38
2023-03-30T16:52:58.952Z,98893.50
2023-03-30T16:55:02.746Z,98886.19
2023-03-30T16:57:08.632Z,98884.03
2023-03-30T16:59:22.599Z,98880.22
2023-03-30T17:01:28.841Z,98878.09
2023-03-30T17:03:32.920Z,98875.06
2023-03-30T17:05:36.522Z,98866.94
2023-03-30T17:07:40.552Z,98871.31
2023-03-30T17:09:44.380Z,98873.03
2023-03-30T17:11:49.497Z,98861.41
2023-03-30T17:13:53.044Z,98864.91
2023-03-30T17:15:58.502Z,98844.63
2023-03-30T17:18:06.193Z,98837.84
2023-03-30T17:20:24.063Z,98843.53
2023-03-30T17:22:27.699Z,98837.06
2023-03-30T17:24:31.405Z,98825.41
2023-03-30T17:26:35.283Z,98829.28
2023-03-30T17:28:39.619Z,98831.66
2023-03-30T17:30:43.246Z,98827.84
2023-03-30T17:32:46.895Z,98822.63
2023-03-30T17:34:51.931Z,98821.00
2023-03-30T17:36:55.857Z,98812.84
2023-03-30T17:39:00.178Z,98813.69
2023-03-30T17:41:03.916Z,98808.88
2023-03-30T17:43:08.512Z,98808.00
2023-03-30T17:45:13.451Z,98813.34
2023-03-30T17:47:16.819Z,98799.69
2023-03-30T17:49:20.600Z,98783.72
2023-03-30T17:51:26.137Z,98794.38
2023-03-30T17:53:29.943Z,98781.06
2023-03-30T17:55:35.180Z,98787.06
2023-03-30T17:57:38.749Z,98774.78
2023-03-30T17:59:42.421Z,98775.75
2023-03-30T18:01:46.126Z,98769.44
2023-03-30T18:03:49.909Z,98767.13
2023-03-30T18:05:54.014Z,98761.47
2023-03-30T18:07:59.552Z,98748.69
2023-03-30T18:10:04.945Z,98742.38
2023-03-30T18:12:08.816Z,98736.88
2023-03-30T18:14:13.217Z,98743.53
2023-03-30T18:16:18.104Z,98741.19
2023-03-30T18:18:25.030Z,98740.84
2023-03-30T18:20:32.418Z,98732.72
2023-03-30T18:22:36.532Z,98733.34
2023-03-30T18:24:43.169Z,98722.25
2023-03-30T18:26:46.946Z,98726.69
2023-03-30T18:28:50.501Z,98718.91
2023-03-30T18:30:57.646Z,98720.91
2023-03-30T18:33:01.687Z,98708.28
2023-03-30T18:35:07.665Z,98702.78
2023-03-30T18:37:11.347Z,98707.91
2023-03-30T18:39:20.272Z,98700.78
2023-03-30T18:41:26.073Z,98696.09
2023-03-30T18:43:29.681Z,98689.91
2023-03-30T18:45:36.006Z,98684.41
2023-03-30T18:47:41.316Z,98686.53
2023-03-30T18:49:45.154Z,98688.66
2023-03-30T18:51:49.093Z,98682.53
2023-03-30T18:53:52.510Z,98670.91
2023-03-30T18:55:58.164Z,98671.88
2023-03-30T18:58:03.589Z,98671.34
2023-03-30T19:00:18.652Z,98670.38
2023-03-30T19:02:22.432Z,98660.59
2023-03-30T19:04:26.071Z,98660.59
2023-03-30T19:06:29.581Z,98661.22
2023-03-30T19:08:33.310Z,98657.22
2023-03-30T19:10:40.027Z,98654.06
2023-03-30T19:12:43.625Z,98648.75
2023-03-30T19:14:49.673Z,98643.44
2023-03-30T19:16:53.022Z,98640.31
2023-03-30T19:18:56.551Z,98645.09
2023-03-30T19:20:59.786Z,98643.56
2023-03-30T19:23:03.060Z,98642.59
2023-03-30T19:25:07.569Z,98640.22
2023-03-30T19:27:11.237Z,98639.88
2023-03-30T19:29:15.183Z,98636.84
2023-03-30T19:31:21.178Z,98645.78
2023-03-30T19:33:24.582Z,98633.84
2023-03-30T19:35:28.410Z,98636.66
2023-03-30T19:37:32.183Z,98635.13
2023-03-30T19:39:35.582Z,98624.19
2023-03-30T19:41:38.944Z,98627.84
2023-03-30T19:43:42.213Z,98622.53
2023-03-30T19:45:45.463Z,98613.88
2023-03-30T19:47:51.386Z,98607.94
2023-03-30T19:49:54.764Z,98607.44
2023-03-30T19:51:58.031Z,98602.25
2023-03-30T19:54:01.453Z,98595.09
2023-03-30T19:56:04.770Z,98595.03
2023-03-30T19:58:08.613Z,98581.56
2023-03-30T20:00:15.953Z,98583.19
2023-03-30T20:02:21.920Z,98580.66
2023-03-30T20:04:26.608Z,98571.03
2023-03-30T20:06:30.028Z,98565.47
2023-03-30T20:08:33.335Z,98559.56
2023-03-30T20:10:36.672Z,98555.38
2023-03-30T20:12:39.981Z,98545.22
2023-03-30T20:14:43.187Z,98537.91
2023-03-30T20:16:47.644Z,98533.06
2023-03-30T20:18:54.724Z,98530.03
2023-03-30T20:20:59.846Z,98525.03
2023-03-30T20:23:02.818Z,98516.59
2023-03-30T20:25:07.887Z,98514.84
2023-03-30T20:27:11.252Z,98508.22
2023-03-30T20:29:14.632Z,98494.97
2023-03-30T20:31:18.159Z,98490.28
2023-03-30T20:33:21.930Z,98494.38
2023-03-30T20:35:25.791Z,98486.91
2023-03-30T20:37:30.727Z,98477.59
2023-03-30T20:39:34.351Z,98475.94
2023-03-30T20:41:39.197Z,98462.72
2023-03-30T20:43:56.370Z,98461.34
2023-03-30T20:46:03.370Z,98460.97
2023-03-30T20:48:16.345Z,98445.09
2023-03-30T20:50:19.804Z,98435.00
2023-03-30T20:52:23.983Z,98431.22
2023-03-30T20:54:29.237Z,98431.22
2023-03-30T20:56:32.652Z,98419.78
2023-03-30T20:58:36.129Z,98411.03
2023-03-30T21:00:40.688Z,98405.75
2023-03-30T21:02:44.006Z,98400.78
2023-03-30T21:04:47.490Z,98396.97
2023-03-30T21:06:51.944Z,98387.25
2023-03-30T21:08:57.014Z,98382.63
2023-03-30T21:11:02.710Z,98373.72
2023-03-30T21:13:06.552Z,98376.53
2023-03-30T21:15:11.215Z,98367.78
2023-03-30T21:17:14.651Z,98368.75
2023-03-30T21:19:17.993Z,98365.13
2023-03-30T21:21:21.816Z,98359.16
2023-03-30T21:23:26.859Z,98361.78
2023-03-30T21:25:30.934Z,98351.06
2023-03-30T21:27:35.680Z,98351.22
2023-03-30T21:29:38.984Z,98342.63
2023-03-30T21:31:42.271Z,98337.34
2023-03-30T21:33:45.859Z,98332.88
2023-03-30T21:35:53.160Z,98324.13
2023-03-30T21:37:56.699Z,98323.28
2023-03-30T21:39:59.946Z,98318.16
2023-03-30T21:42:05.319Z,98303.41
2023-03-30T21:44:10.218Z,98290.38
2023-03-30T21:46:16.031Z,98290.38
2023-03-30T21:48:19.448Z,98281.78
2023-03-30T21:50:22.739Z,98282.75
2023-03-30T21:52:26.152Z,98283.72
2023-03-30T21:54:29.528Z,98280.72
2023-03-30T21:56:32.806Z,98283.13
2023-03-30T21:58:36.421Z,98275.97
2023-03-30T22:00:41.376Z,98270.00
2023-03-30T22:02:44.858Z,98268.34
2023-03-30T22:04:48.594Z,98254.47
2023-03-30T22:06:52.005Z,98261.84
2023-03-30T22:08:56.066Z,98249.66
2023-03-30T22:11:03.024Z,98243.38
2023-03-30T22:13:06.880Z,98243.91
2023-03-30T22:15:10.867Z,98227.75
2023-03-30T22:17:15.806Z,98222.13
2023-03-30T22:19:22.900Z,98214.38
2023-03-30T22:21:29.299Z,98214.69
2023-03-30T22:23:33.459Z,98216.13
2023-03-30T22:25:37.060Z,98202.25
2023-03-30T22:27:40.606Z,98205.88
2023-03-30T22:29:44.063Z,98194.78
2023-03-30T22:31:47.987Z,98192.28
2023-03-30T22:33:54.369Z,98193.28
2023-03-30T22:36:00.029Z,98181.03
2023-03-30T22:38:03.736Z,98168.38
2023-03-30T22:40:08.060Z,98169.50
2023-03-30T22:42:11.728Z,98161.22
2023-03-30T22:44:17.857Z,98159.25
2023-03-30T22:46:21.567Z,98152.63
2023-03-30T22:48:24.855Z,98140.41
2023-03-30T22:50:29.900Z,98141.53
2023-03-30T22:52:33.609Z,98136.72
2023-03-30T22:54:36.540Z,98132.09
2023-03-30T22:56:39.781Z,98127.94
2023-03-30T22:58:42.967Z,98129.13
2023-03-30T23:00:46.427Z,98127.72
2023-03-30T23:02:50.807Z,98113.84
2023-03-30T23:04:55.285Z,98108.88
2023-03-30T23:07:00.558Z,98108.50
2023-03-30T23:09:04.409Z,98093.47
2023-03-30T23:11:08.437Z,98102.25
2023-03-30T23:13:11.655Z,98093.34
2023-03-30T23:15:15.364Z,98096.97
2023-03-30T23:17:18.669Z,98091.69
2023-03-30T23:19:22.632Z,98092.81
2023-03-30T23:21:25.882Z,98095.31
2023-03-30T23:23:30.572Z,98095.31
2023-03-30T23:25:34.111Z,98086.56
2023-03-30T23:27:37.998Z,98085.28
2023-03-30T23:29:41.677Z,98079.69
2023-03-30T23:31:44.973Z,98081.50
2023-03-30T23:33:48.243Z,98068.00
2023-03-30T23:35:53.327Z,98061.03
2023-03-30T23:37:56.850Z,98070.25
2023-03-30T23:40:02.117Z,98058.88
2023-03-30T23:42:06.646Z,98052.09
2023-03-30T23:44:10.025Z,98051.41
2023-03-30T23:46:14.062Z,98041.00
2023-03-30T23:48:17.342Z,98041.97
2023-03-30T23:50:20.568Z,98044.13
2023-03-30T23:52:23.802Z,98032.88
2023-03-30T23:54:31.557Z,98030.72
2023-03-30T23:56:42.841Z,98025.75
2023-03-30T23:58:45.893Z,98023.25
